Latest Weather Observations for Alva Beach

IDQ60801

Issued at 12:35 pm EST Sunday 26 October 2014 (issued every 30 minutes, with the page automatically refreshed every 10 minutes)

About weather observations | Map of weather stations | Latest weather observations for QLD | Other Formats
Station Details ID: 033295 Name: ALVA BEACH Lat: -19.46 Lon: 147.48 Height: 7.5 m
Data from the previous 72 hours. | See also: Recent months at Alva Beach
Date/Time
EST
Temp
°C
App
Temp
°C
Dew
Point
Rel
Hum
%
Delta-T
°C
Wind Press
QNH
hPa
Press
MSL
hPa
Rain
since 9 am
mm
Dir
 
Spd
km/h
Gust
km/h
Spd
kts
Gust
kts
26/12:30pm 26.0 24.3 14.8 50 6.7 ENE 17 24 9 13 1016.3 1016.3 0.0
26/12:00pm 25.8 24.5 14.9 51 6.5 ENE 15 19 8 10 1016.7 1016.7 0.0
26/11:30am 26.1 24.7 14.6 49 6.9 ENE 15 19 8 10 1017.0 1017.0 0.0
26/11:00am 25.6 25.2 15.3 53 6.2 E 11 15 6 8 1017.3 1017.3 0.0
26/10:30am 24.9 23.9 14.7 53 6.1 E 13 17 7 9 1017.5 1017.5 0.0
26/10:00am 25.2 25.2 15.2 54 6.0 E 9 13 5 7 1017.9 1017.9 0.0
26/09:30am 24.7 24.2 14.8 54 5.9 E 11 17 6 9 1018.1 1018.1 0.0
26/09:00am 24.7 24.1 14.5 53 6.0 E 11 17 6 9 1018.0 1018.0 0.0
26/08:30am 24.4 23.8 14.5 54 5.9 E 11 17 6 9 1018.0 1018.0 0.0
26/08:00am 24.5 23.3 15.1 55 5.6 E 15 20 8 11 1017.9 1017.9 0.0
26/07:30am 23.7 22.7 14.7 57 5.3 E 13 17 7 9 1017.7 1017.7 0.0
26/07:00am 23.5 23.0 15.0 59 5.1 E 11 17 6 9 1017.6 1017.6 0.0
26/06:30am 22.7 22.0 15.5 64 4.3 E 13 19 7 10 1017.3 1017.3 0.0
26/06:00am 21.7 21.4 15.5 68 3.7 E 11 15 6 8 1016.9 1016.9 0.0
26/05:30am 21.4 20.6 15.0 67 3.8 E 13 19 7 10 1016.7 1016.7 0.0
26/05:00am 21.6 20.5 15.4 68 3.7 E 15 20 8 11 1016.4 1016.4 0.0
26/04:30am 21.8 20.7 15.4 67 3.8 E 15 20 8 11 1016.3 1016.3 0.0
26/04:00am 21.8 21.0 16.1 70 3.4 ENE 15 20 8 11 1016.2 1016.2 0.0
26/03:30am 22.0 20.3 15.8 68 3.7 ENE 19 22 10 12 1016.3 1016.3 0.0
26/03:00am 21.9 20.2 15.7 68 3.7 ENE 19 24 10 13 1016.5 1016.5 0.0
26/02:30am 21.9 19.8 15.3 66 3.9 ENE 20 24 11 13 1016.4 1016.4 0.0
26/02:00am 22.0 19.4 14.9 64 4.2 ENE 22 30 12 16 1016.6 1016.6 0.0
26/01:30am 22.1 19.8 15.7 67 3.8 ENE 22 28 12 15 1016.9 1016.9 0.0
26/01:00am 22.5 21.1 16.5 69 3.6 E 19 24 10 13 1017.3 1017.3 0.0
26/12:30am 22.4 19.8 16.0 67 3.9 ENE 24 30 13 16 1017.5 1017.5 0.0
26/12:00am 22.4 20.5 15.7 66 4.0 ENE 20 30 11 16 1017.8 1017.8 0.0
 
Date/Time
EST
Temp
°C
App
Temp
°C
Dew
Point
Rel
Hum
%
Delta-T
°C
Wind Press
QNH
hPa
Press
MSL
hPa
Rain
since 9 am
mm
Dir
 
Spd
km/h
Gust
km/h
Spd
kts
Gust
kts
25/11:30pm 22.7 21.2 16.3 67 3.9 ENE 19 26 10 14 1018.2 1018.2 0.0
25/11:00pm 22.8 20.8 16.4 67 3.9 E 22 30 12 16 1018.3 1018.3 0.0
25/10:30pm 22.7 20.4 15.8 65 4.2 E 22 30 12 16 1018.6 1018.6 0.0
25/10:00pm 22.9 21.4 16.7 68 3.8 E 20 32 11 17 1018.7 1018.7 0.0
25/09:30pm 22.9 21.0 16.7 68 3.8 E 22 28 12 15 1018.6 1018.6 0.0
25/09:00pm 22.9 20.7 16.0 65 4.2 ENE 22 30 12 16 1018.4 1018.4 0.0
25/08:30pm 23.0 21.0 15.6 63 4.4 ENE 20 26 11 14 1018.3 1018.3 0.0
25/08:00pm 23.0 20.9 16.1 65 4.2 ENE 22 28 12 15 1018.1 1018.1 0.0
25/07:30pm 22.9 21.1 16.0 65 4.2 ENE 20 26 11 14 1018.0 1018.0 0.0
25/07:00pm 23.0 21.2 16.1 65 4.2 ENE 20 26 11 14 1017.6 1017.6 0.0
25/06:30pm 23.2 21.2 16.5 66 4.1 ENE 22 28 12 15 1017.3 1017.3 0.0
25/06:00pm 23.2 20.6 16.0 64 4.4 ENE 24 28 13 15 1016.9 1016.9 0.0
25/05:30pm 23.7 21.7 16.5 64 4.4 ENE 22 30 12 16 1016.7 1016.7 0.0
25/05:00pm 24.0 21.4 16.0 61 4.9 ENE 24 28 13 15 1016.3 1016.3 0.0
25/04:30pm 24.5 22.2 15.7 58 5.3 ENE 22 28 12 15 1016.2 1016.2 0.0
25/04:00pm 25.0 23.2 15.9 57 5.5 NE 20 24 11 13 1016.0 1016.0 0.0
25/03:30pm 25.3 23.3 16.4 57 5.5 ENE 22 28 12 15 1016.1 1016.1 0.0
25/03:00pm 25.3 23.3 15.6 55 5.9 ENE 20 24 11 13 1016.3 1016.3 0.0
25/02:30pm 25.7 23.7 15.4 53 6.2 ENE 20 24 11 13 1016.6 1016.6 0.0
25/02:00pm 25.7 23.5 14.8 51 6.5 NE 20 24 11 13 1016.8 1016.8 0.0
25/01:30pm 26.0 23.9 15.1 51 6.6 ENE 20 28 11 15 1017.2 1017.2 0.0
25/01:00pm 25.7 23.7 13.9 48 7.0 E 17 22 9 12 1017.6 1017.6 0.0
25/12:30pm 26.1 25.1 14.6 49 6.9 E 13 20 7 11 1018.0 1018.0 0.0
25/12:00pm 26.0 24.3 14.8 50 6.7 E 17 24 9 13 1018.4 1018.4 0.0
25/11:30am 26.9 26.6 16.5 53 6.4 ESE 13 19 7 10 1018.9 1018.9 0.0
25/11:00am 25.7 25.0 15.4 53 6.2 ESE 13 22 7 12 1019.4 1019.4 0.0
25/10:30am 25.3 24.1 15.0 53 6.2 E 15 22 8 12 1019.6 1019.6 0.0
25/10:00am 24.8 22.4 13.7 50 6.5 E 19 24 10 13 1019.9 1019.9 0.0
25/09:30am 24.9 23.0 14.1 51 6.4 E 17 24 9 13 1020.0 1020.0 0.0
25/09:00am 24.7 22.0 13.0 48 6.8 E 19 24 10 13 1020.0 1020.0 0.0
25/08:30am 25.0 24.8 16.7 60 5.1 ESE 13 22 7 12 1020.0 1020.0 0.0
25/08:00am 24.6 24.0 17.6 65 4.4 E 17 24 9 13 1019.7 1019.7 0.0
25/07:30am 23.2 23.9 17.0 68 3.8 SE 9 19 5 10 1019.5 1019.5 0.0
25/07:00am 19.9 20.6 16.0 78 2.3 SSW 7 11 4 6 1019.2 1019.2 0.0
25/06:30am 18.5 18.3 14.8 79 2.1 SSW 9 13 5 7 1019.1 1019.1 0.0
25/06:00am 18.5 18.4 15.0 80 2.0 S 9 13 5 7 1018.8 1018.8 0.0
25/05:30am 18.8 19.1 15.1 79 2.2 S 7 11 4 6 1018.5 1018.5 0.0
25/05:00am 19.0 18.8 14.7 76 2.5 S 9 13 5 7 1018.3 1018.3 0.0
25/04:30am 19.4 19.4 15.1 76 2.5 S 9 13 5 7 1018.1 1018.1 0.0
25/04:00am 19.2 19.1 14.9 76 2.5 S 9 13 5 7 1017.9 1017.9 0.0
25/03:30am 19.0 19.1 14.5 75 2.6 SSW 7 9 4 5 1017.9 1017.9 0.0
25/03:00am 21.1 20.3 15.0 68 3.6 ESE 13 20 7 11 1017.8 1017.8 0.0
25/02:30am 21.9 20.7 16.2 70 3.4 E 17 22 9 12 1017.9 1017.9 0.0
25/02:00am 22.1 21.0 16.4 70 3.5 ESE 17 24 9 13 1018.2 1018.2 0.0
25/01:30am 21.9 20.7 16.2 70 3.4 ESE 17 28 9 15 1018.5 1018.5 0.0
25/01:00am 22.0 20.9 16.3 70 3.4 ESE 17 28 9 15 1018.8 1018.8 0.0
25/12:30am 22.1 20.5 16.4 70 3.5 E 20 28 11 15 1019.0 1019.0 0.0
25/12:00am 22.2 20.7 16.2 69 3.6 E 19 26 10 14 1019.4 1019.4 0.0
 
Date/Time
EST
Temp
°C
App
Temp
°C
Dew
Point
Rel
Hum
%
Delta-T
°C
Wind Press
QNH
hPa
Press
MSL
hPa
Rain
since 9 am
mm
Dir
 
Spd
km/h
Gust
km/h
Spd
kts
Gust
kts
24/11:30pm 22.3 20.5 15.9 67 3.9 E 20 30 11 16 1019.8 1019.8 0.0
24/11:00pm 22.6 20.9 16.2 67 3.9 E 20 28 11 15 1019.9 1019.9 0.0
24/10:30pm 22.6 20.6 16.4 68 3.8 E 22 30 12 16 1020.0 1020.0 0.0
24/10:00pm 22.7 20.4 16.7 69 3.7 E 24 33 13 18 1019.9 1019.9 0.0
24/09:30pm 22.6 19.2 15.7 65 4.1 E 28 35 15 19 1019.7 1019.7 0.0
24/09:00pm 22.5 18.6 15.6 65 4.1 E 30 39 16 21 1019.4 1019.4 0.0
24/08:30pm 22.6 18.4 15.7 65 4.1 E 32 41 17 22 1019.0 1019.0 0.0
24/08:00pm 23.0 20.5 17.0 69 3.7 E 26 35 14 19 1018.8 1018.8 0.0
24/07:30pm 22.9 19.5 16.7 68 3.8 E 30 43 16 23 1018.4 1018.4 0.0
24/07:00pm 22.8 20.1 16.6 68 3.8 E 26 37 14 20 1018.1 1018.1 0.0
24/06:30pm 22.8 19.9 16.1 66 4.1 E 26 37 14 20 1018.0 1018.0 0.0
24/06:00pm 22.9 19.8 15.7 64 4.3 E 26 33 14 18 1018.0 1018.0 0.0
24/05:30pm 23.5 20.3 16.3 64 4.4 E 28 35 15 19 1017.7 1017.7 0.0
24/05:00pm 23.7 21.4 15.7 61 4.8 E 22 30 12 16 1017.3 1017.3 0.0
24/04:30pm 24.1 22.0 15.1 57 5.4 E 20 28 11 15 1017.1 1017.1 0.0
24/04:00pm 24.6 22.4 14.4 53 6.0 E 19 26 10 14 1017.0 1017.0 0.0
24/03:30pm 24.9 23.3 16.1 58 5.4 E 19 26 10 14 1017.1 1017.1 0.0
24/03:00pm 24.5 22.5 14.0 52 6.2 E 17 24 9 13 1017.1 1017.1 0.0
24/02:30pm 24.9 22.1 14.4 52 6.2 ENE 22 30 12 16 1017.3 1017.3 0.0
24/02:00pm 25.0 22.6 14.5 52 6.2 ENE 20 30 11 16 1017.6 1017.6 0.0
24/01:30pm 24.7 22.4 14.2 52 6.2 E 19 24 10 13 1018.0 1018.0 0.0
24/01:00pm 25.4 23.5 15.1 53 6.2 E 19 24 10 13 1018.4 1018.4 0.0
24/12:30pm 24.5 22.3 13.4 50 6.5 E 17 22 9 12 1018.8 1018.8 0.0
24/12:00pm 25.1 23.0 13.6 49 6.7 E 17 22 9 12 1019.2 1019.2 0.0
24/11:30am 25.5 24.4 14.3 50 6.7 ESE 13 22 7 12 1019.4 1019.4 0.0
24/11:00am 25.7 24.1 13.9 48 7.0 ESE 15 24 8 13 1019.7 1019.7 0.0
24/10:30am 24.8 23.6 14.0 51 6.4 ESE 13 20 7 11 1019.8 1019.8 0.0
24/10:00am 24.6 23.4 14.1 52 6.2 SE 13 19 7 10 1020.0 1020.0 0.0
24/09:30am 24.5 23.0 13.1 49 6.6 ESE 13 20 7 11 1020.1 1020.1 0.0
24/09:00am 23.9 22.9 14.6 56 5.5 SE 13 20 7 11 1020.2 1020.2 0.0
24/08:30am 23.4 22.5 13.8 54 5.6 SE 11 20 6 11 1020.1 1020.1 0.0
24/08:00am 23.4 23.2 14.7 58 5.1 SE 9 17 5 9 1020.1 1020.1 0.0
24/07:30am 22.2 22.0 14.8 63 4.4 SSE 9 17 5 9 1019.8 1019.8 0.0
24/07:00am 20.0 20.1 15.4 75 2.7 S 9 15 5 8 1019.6 1019.6 0.0
24/06:30am 17.7 17.8 15.5 87 1.3 S 9 15 5 8 1019.3 1019.3 0.0
24/06:00am 16.0 15.7 14.4 90 0.9 S 9 13 5 7 1019.0 1019.0 0.0
24/05:30am 15.7 15.2 13.9 89 1.0 SSW 9 11 5 6 1018.8 1018.8 0.0
24/05:00am 16.0 15.8 13.7 86 1.3 SSW 7 9 4 5 1018.3 1018.3 0.0
24/04:30am 16.5 16.0 13.8 84 1.5 SSW 9 13 5 7 1018.1 1018.1 0.0
24/04:00am 16.9 16.7 13.6 81 1.9 SSW 7 11 4 6 1018.0 1018.0 0.0
24/03:30am 17.7 17.6 14.0 79 2.1 S 7 9 4 5 1017.9 1017.9 0.0
24/03:00am 18.4 17.9 13.9 75 2.6 SSW 9 13 5 7 1017.9 1017.9 0.0
24/02:30am 21.1 20.1 14.7 67 3.8 ESE 13 22 7 12 1018.1 1018.1 0.0
24/02:00am 21.9 19.9 15.0 65 4.1 E 19 26 10 14 1018.2 1018.2 0.0
24/01:30am 21.8 19.5 14.2 62 4.4 E 19 30 10 16 1018.6 1018.6 0.0
24/01:00am 22.3 19.6 14.7 62 4.5 E 22 32 12 17 1018.8 1018.8 0.0
24/12:30am 22.3 20.1 15.9 67 3.9 E 22 30 12 16 1019.1 1019.1 0.0
24/12:00am 22.4 20.4 16.4 69 3.6 E 22 32 12 17 1019.3 1019.3 0.0
 
Date/Time
EST
Temp
°C
App
Temp
°C
Dew
Point
Rel
Hum
%
Delta-T
°C
Wind Press
QNH
hPa
Press
MSL
hPa
Rain
since 9 am
mm
Dir
 
Spd
km/h
Gust
km/h
Spd
kts
Gust
kts
23/11:30pm 22.3 18.8 15.6 66 4.0 E 28 43 15 23 1019.4 1019.4 0.0
23/11:00pm 22.5 18.5 15.1 63 4.4 E 30 39 16 21 1019.4 1019.4 0.0
23/10:30pm 22.6 19.2 15.7 65 4.1 E 28 37 15 20 1019.5 1019.5 0.0
23/10:00pm 22.8 20.2 16.8 69 3.7 E 26 35 14 19 1019.4 1019.4 0.0
23/09:30pm 22.6 19.4 16.4 68 3.8 E 28 37 15 20 1019.3 1019.3 0.0
23/09:00pm 22.6 19.1 16.6 69 3.7 E 30 41 16 22 1018.9 1018.9 0.0
23/08:30pm 22.7 19.1 17.2 71 3.4 E 32 43 17 23 1018.6 1018.6 0.0
23/08:00pm 22.7 19.4 16.9 70 3.5 E 30 43 16 23 1018.2 1018.2 0.0
23/07:30pm 22.8 18.8 16.6 68 3.8 E 33 41 18 22 1017.9 1017.9 0.0
23/07:00pm 22.7 18.4 15.3 63 4.4 E 32 43 17 23 1017.5 1017.5 0.0
23/06:30pm 22.9 18.1 15.7 64 4.3 E 35 46 19 25 1017.0 1017.0 0.0
23/06:00pm 22.8 17.5 15.4 63 4.4 E 37 48 20 26 1016.4 1016.4 0.0
23/05:30pm 23.2 17.7 15.8 63 4.5 E 39 48 21 26 1016.1 1016.1 0.0
23/05:00pm 23.5 18.7 15.5 60 4.8 E 35 48 19 26 1015.6 1015.6 0.0
23/04:30pm 24.2 19.8 15.1 56 5.4 E 32 39 17 21 1015.5 1015.5 0.0
23/04:00pm 24.3 19.7 15.2 57 5.5 E 33 43 18 23 1015.4 1015.4 0.0
23/03:30pm 24.9 21.1 16.6 60 5.1 E 32 39 17 21 1015.5 1015.5 0.0
23/03:00pm 25.1 20.9 15.7 56 5.7 E 32 41 17 22 1015.8 1015.8 0.0
23/02:30pm 25.6 22.0 16.2 56 5.8 E 30 39 16 21 1016.1 1016.1 0.0
23/02:00pm 25.8 22.0 14.6 50 6.7 E 28 35 15 19 1016.2 1016.2 0.0
23/01:30pm 25.9 22.4 14.4 49 6.9 E 26 33 14 18 1016.5 1016.5 0.0
23/01:00pm 25.7 22.9 15.4 53 6.2 E 24 30 13 16 1017.0 1017.0 0.0

Other Formats:

Comma delimited format used in spreadsheet applications
http://www.bom.gov.au/fwo/IDQ60801/IDQ60801.95296.axf

JavaScript Object Notation format (JSON) in row-major order
http://www.bom.gov.au/fwo/IDQ60801/IDQ60801.95296.json